Aviation Digital Data Service (ADDS)

Output produced by METARs form (1353 UTC 26 May 2018)
found at http://www.aviationweather.gov/adds/metars/
 
TAF TTPP 261000Z 2612/2712 08015KT 9999 SCT018 
     TEMPO 2613/2619 4000 SHRA FEW012TCU BKN015 
     BECMG 2623/2701 09005KT FEW018 
     TEMPO 2704/2712 6000 SHRA SCT015 SCT038
       
TAF TTCP 261000Z 2612/2712 08015KT 9999 SCT018 
     TEMPO 2613/2619 4000 SHRA FEW012TCU BKN015 
     BECMG 2623/2701 09008KT FEW018 
     TEMPO 2704/2712 6000 SHRA SCT015 SCT038